Terminal Aerodrome Forecast
Issued by NWS

Home | Current Version | Previous Version | Text Only | Print | Product List | Glossary On
Versions: 1 2 3 4 5 6 7 8 9 10 11 12 13 14 15 16 17 18 19 20 21 22 23
000
FTUS44 KSJT 181100
TAFBBD
TAF
KBBD 181124Z 1812/1912 00000KT P6SM OVC017
     FM181400 VRB03KT 4SM BR OVC015
     FM181500 15007KT P6SM BKN022
     FM181800 18010KT P6SM VCTS SCT050CB
     FM190400 VRB03KT P6SM SCT050=

USA.gov is the U.S. government's official web portal to all federal, state and local government web resources and services.